sensor_id;sensor_type;location;lat;lon;timestamp;P1;durP1;ratioP1;P2;durP2;ratioP2
3841;SDS011;1936;47.074;15.336;2024-01-30T00:00:21;11.93;;;7.32;;
3841;SDS011;1936;47.074;15.336;2024-01-30T00:02:24;19.98;;;6.40;;
3841;SDS011;1936;47.074;15.336;2024-01-30T00:04:28;11.90;;;7.30;;
3841;SDS011;1936;47.074;15.336;2024-01-30T00:06:31;15.32;;;7.55;;
3841;SDS011;1936;47.074;15.336;2024-01-30T00:08:34;10.00;;;6.90;;
3841;SDS011;1936;47.074;15.336;2024-01-30T00:10:38;17.58;;;7.97;;
3841;SDS011;1936;47.074;15.336;2024-01-30T00:12:43;10.82;;;6.38;;
3841;SDS011;1936;47.074;15.336;2024-01-30T00:14:47;13.13;;;7.47;;
3841;SDS011;1936;47.074;15.336;2024-01-30T00:16:55;15.52;;;7.28;;
3841;SDS011;1936;47.074;15.336;2024-01-30T00:18:59;26.17;;;8.05;;
3841;SDS011;1936;47.074;15.336;2024-01-30T00:21:04;21.75;;;8.60;;
3841;SDS011;1936;47.074;15.336;2024-01-30T00:23:07;28.00;;;9.80;;
3841;SDS011;1936;47.074;15.336;2024-01-30T00:25:11;18.98;;;7.68;;
3841;SDS011;1936;47.074;15.336;2024-01-30T00:27:14;17.58;;;8.65;;
3841;SDS011;1936;47.074;15.336;2024-01-30T00:29:19;15.90;;;7.25;;
3841;SDS011;1936;47.074;15.336;2024-01-30T00:31:24;15.60;;;7.03;;
3841;SDS011;1936;47.074;15.336;2024-01-30T00:33:28;12.77;;;7.30;;
3841;SDS011;1936;47.074;15.336;2024-01-30T00:35:31;10.82;;;5.50;;
3841;SDS011;1936;47.074;15.336;2024-01-30T00:37:34;8.50;;;5.50;;
3841;SDS011;1936;47.074;15.336;2024-01-30T00:39:38;6.15;;;5.25;;
3841;SDS011;1936;47.074;15.336;2024-01-30T00:41:41;6.43;;;4.65;;
3841;SDS011;1936;47.074;15.336;2024-01-30T00:43:44;7.57;;;5.50;;
3841;SDS011;1936;47.074;15.336;2024-01-30T00:45:49;5.95;;;4.22;;
3841;SDS011;1936;47.074;15.336;2024-01-30T00:47:54;6.03;;;4.65;;
3841;SDS011;1936;47.074;15.336;2024-01-30T00:49:57;10.15;;;3.83;;
3841;SDS011;1936;47.074;15.336;2024-01-30T00:52:01;11.63;;;4.95;;
3841;SDS011;1936;47.074;15.336;2024-01-30T00:54:04;6.50;;;4.43;;
3841;SDS011;1936;47.074;15.336;2024-01-30T00:56:08;7.28;;;3.95;;
3841;SDS011;1936;47.074;15.336;2024-01-30T00:58:11;13.25;;;5.43;;
3841;SDS011;1936;47.074;15.336;2024-01-30T01:00:15;8.52;;;4.90;;
3841;SDS011;1936;47.074;15.336;2024-01-30T01:02:20;6.43;;;4.80;;
3841;SDS011;1936;47.074;15.336;2024-01-30T01:04:24;10.80;;;5.18;;
3841;SDS011;1936;47.074;15.336;2024-01-30T01:06:28;7.80;;;5.00;;
3841;SDS011;1936;47.074;15.336;2024-01-30T01:08:32;10.63;;;4.35;;
3841;SDS011;1936;47.074;15.336;2024-01-30T01:10:36;5.85;;;4.32;;
3841;SDS011;1936;47.074;15.336;2024-01-30T01:12:39;5.05;;;3.83;;
3841;SDS011;1936;47.074;15.336;2024-01-30T01:14:43;7.70;;;4.40;;
3841;SDS011;1936;47.074;15.336;2024-01-30T01:16:46;6.05;;;4.60;;
3841;SDS011;1936;47.074;15.336;2024-01-30T01:18:51;5.38;;;3.65;;
3841;SDS011;1936;47.074;15.336;2024-01-30T01:20:55;8.63;;;4.80;;
3841;SDS011;1936;47.074;15.336;2024-01-30T01:22:58;6.20;;;3.42;;
3841;SDS011;1936;47.074;15.336;2024-01-30T01:25:02;4.40;;;3.70;;
3841;SDS011;1936;47.074;15.336;2024-01-30T01:27:05;4.18;;;3.25;;
3841;SDS011;1936;47.074;15.336;2024-01-30T01:29:09;5.40;;;3.88;;
3841;SDS011;1936;47.074;15.336;2024-01-30T01:31:13;6.18;;;3.97;;
3841;SDS011;1936;47.074;15.336;2024-01-30T01:33:16;6.85;;;3.38;;
3841;SDS011;1936;47.074;15.336;2024-01-30T01:35:22;6.57;;;4.18;;
3841;SDS011;1936;47.074;15.336;2024-01-30T01:37:27;7.63;;;3.95;;
3841;SDS011;1936;47.074;15.336;2024-01-30T01:39:30;8.30;;;4.18;;
3841;SDS011;1936;47.074;15.336;2024-01-30T01:41:34;7.13;;;4.13;;
3841;SDS011;1936;47.074;15.336;2024-01-30T01:43:38;8.43;;;4.40;;
3841;SDS011;1936;47.074;15.336;2024-01-30T01:45:42;7.32;;;4.32;;
3841;SDS011;1936;47.074;15.336;2024-01-30T01:47:47;5.05;;;3.88;;
3841;SDS011;1936;47.074;15.336;2024-01-30T01:49:53;8.45;;;4.07;;
3841;SDS011;1936;47.074;15.336;2024-01-30T01:51:58;6.43;;;4.50;;
3841;SDS011;1936;47.074;15.336;2024-01-30T01:54:03;9.85;;;5.30;;
3841;SDS011;1936;47.074;15.336;2024-01-30T01:56:08;7.80;;;4.13;;
3841;SDS011;1936;47.074;15.336;2024-01-30T01:58:12;7.03;;;4.20;;
3841;SDS011;1936;47.074;15.336;2024-01-30T02:00:16;11.73;;;4.82;;
3841;SDS011;1936;47.074;15.336;2024-01-30T02:02:21;8.10;;;5.25;;
3841;SDS011;1936;47.074;15.336;2024-01-30T02:04:27;5.30;;;4.32;;
3841;SDS011;1936;47.074;15.336;2024-01-30T02:06:31;8.18;;;4.40;;
3841;SDS011;1936;47.074;15.336;2024-01-30T02:08:37;10.15;;;5.05;;
3841;SDS011;1936;47.074;15.336;2024-01-30T02:10:41;7.38;;;4.13;;
3841;SDS011;1936;47.074;15.336;2024-01-30T02:12:45;6.40;;;4.55;;
3841;SDS011;1936;47.074;15.336;2024-01-30T02:14:48;9.25;;;5.30;;
3841;SDS011;1936;47.074;15.336;2024-01-30T02:16:51;7.88;;;4.45;;
3841;SDS011;1936;47.074;15.336;2024-01-30T02:18:54;8.80;;;4.65;;
3841;SDS011;1936;47.074;15.336;2024-01-30T02:20:58;7.22;;;5.32;;
3841;SDS011;1936;47.074;15.336;2024-01-30T02:23:04;5.70;;;4.88;;
3841;SDS011;1936;47.074;15.336;2024-01-30T02:25:10;6.57;;;4.97;;
3841;SDS011;1936;47.074;15.336;2024-01-30T02:27:13;11.88;;;4.68;;
3841;SDS011;1936;47.074;15.336;2024-01-30T02:29:16;7.30;;;4.50;;
3841;SDS011;1936;47.074;15.336;2024-01-30T02:31:20;9.07;;;5.15;;
3841;SDS011;1936;47.074;15.336;2024-01-30T02:33:23;5.35;;;4.00;;
3841;SDS011;1936;47.074;15.336;2024-01-30T02:35:27;6.15;;;3.90;;
3841;SDS011;1936;47.074;15.336;2024-01-30T02:37:30;7.30;;;5.30;;
3841;SDS011;1936;47.074;15.336;2024-01-30T02:39:35;7.35;;;4.55;;
3841;SDS011;1936;47.074;15.336;2024-01-30T02:41:39;8.30;;;4.68;;
3841;SDS011;1936;47.074;15.336;2024-01-30T02:43:42;5.03;;;3.70;;
3841;SDS011;1936;47.074;15.336;2024-01-30T02:45:45;8.05;;;4.43;;
3841;SDS011;1936;47.074;15.336;2024-01-30T02:47:49;7.43;;;4.40;;
3841;SDS011;1936;47.074;15.336;2024-01-30T02:49:52;4.75;;;4.05;;
3841;SDS011;1936;47.074;15.336;2024-01-30T02:51:57;6.10;;;4.38;;
3841;SDS011;1936;47.074;15.336;2024-01-30T02:54:00;6.85;;;4.10;;
3841;SDS011;1936;47.074;15.336;2024-01-30T02:56:06;7.70;;;4.35;;
3841;SDS011;1936;47.074;15.336;2024-01-30T02:58:11;6.82;;;4.15;;
3841;SDS011;1936;47.074;15.336;2024-01-30T03:00:14;5.90;;;3.70;;
3841;SDS011;1936;47.074;15.336;2024-01-30T03:02:18;5.25;;;4.65;;
3841;SDS011;1936;47.074;15.336;2024-01-30T03:04:20;8.90;;;5.18;;
3841;SDS011;1936;47.074;15.336;2024-01-30T03:06:24;6.72;;;4.30;;
3841;SDS011;1936;47.074;15.336;2024-01-30T03:08:27;7.18;;;4.00;;
3841;SDS011;1936;47.074;15.336;2024-01-30T03:10:31;7.75;;;5.13;;
3841;SDS011;1936;47.074;15.336;2024-01-30T03:12:36;5.15;;;3.58;;
3841;SDS011;1936;47.074;15.336;2024-01-30T03:14:39;7.15;;;4.18;;
3841;SDS011;1936;47.074;15.336;2024-01-30T03:16:42;12.50;;;5.50;;
3841;SDS011;1936;47.074;15.336;2024-01-30T03:18:46;5.50;;;4.13;;
3841;SDS011;1936;47.074;15.336;2024-01-30T03:20:50;9.57;;;5.00;;
3841;SDS011;1936;47.074;15.336;2024-01-30T03:22:55;6.20;;;3.60;;
3841;SDS011;1936;47.074;15.336;2024-01-30T03:24:58;5.65;;;3.83;;
3841;SDS011;1936;47.074;15.336;2024-01-30T03:27:02;7.07;;;4.57;;
3841;SDS011;1936;47.074;15.336;2024-01-30T03:29:07;5.95;;;4.15;;
3841;SDS011;1936;47.074;15.336;2024-01-30T03:31:12;9.07;;;4.85;;
3841;SDS011;1936;47.074;15.336;2024-01-30T03:33:17;7.10;;;3.60;;
3841;SDS011;1936;47.074;15.336;2024-01-30T03:35:19;6.57;;;3.45;;
3841;SDS011;1936;47.074;15.336;2024-01-30T03:37:23;8.05;;;4.50;;
3841;SDS011;1936;47.074;15.336;2024-01-30T03:39:26;5.38;;;3.85;;
3841;SDS011;1936;47.074;15.336;2024-01-30T03:41:30;11.82;;;3.95;;
3841;SDS011;1936;47.074;15.336;2024-01-30T03:43:33;6.47;;;4.82;;
3841;SDS011;1936;47.074;15.336;2024-01-30T03:45:38;4.78;;;3.22;;
3841;SDS011;1936;47.074;15.336;2024-01-30T03:47:43;5.28;;;3.85;;
3841;SDS011;1936;47.074;15.336;2024-01-30T03:49:47;7.50;;;4.65;;
3841;SDS011;1936;47.074;15.336;2024-01-30T03:51:50;8.20;;;4.95;;
3841;SDS011;1936;47.074;15.336;2024-01-30T03:53:54;8.40;;;3.85;;
3841;SDS011;1936;47.074;15.336;2024-01-30T03:55:57;7.72;;;4.70;;
3841;SDS011;1936;47.074;15.336;2024-01-30T03:58:01;5.63;;;3.00;;
3841;SDS011;1936;47.074;15.336;2024-01-30T04:00:04;5.13;;;3.28;;
3841;SDS011;1936;47.074;15.336;2024-01-30T04:02:11;7.22;;;4.20;;
3841;SDS011;1936;47.074;15.336;2024-01-30T04:04:15;4.10;;;3.70;;
3841;SDS011;1936;47.074;15.336;2024-01-30T04:06:18;7.80;;;4.30;;
3841;SDS011;1936;47.074;15.336;2024-01-30T04:08:21;4.43;;;3.92;;
3841;SDS011;1936;47.074;15.336;2024-01-30T04:10:24;6.28;;;3.95;;
3841;SDS011;1936;47.074;15.336;2024-01-30T04:12:27;6.40;;;3.60;;
3841;SDS011;1936;47.074;15.336;2024-01-30T04:14:30;7.40;;;3.20;;
3841;SDS011;1936;47.074;15.336;2024-01-30T04:16:33;4.68;;;3.80;;
3841;SDS011;1936;47.074;15.336;2024-01-30T04:18:39;4.15;;;3.50;;
3841;SDS011;1936;47.074;15.336;2024-01-30T04:20:42;8.73;;;4.47;;
3841;SDS011;1936;47.074;15.336;2024-01-30T04:22:46;4.70;;;3.42;;
3841;SDS011;1936;47.074;15.336;2024-01-30T04:24:49;6.00;;;3.88;;
3841;SDS011;1936;47.074;15.336;2024-01-30T04:26:51;8.50;;;4.05;;
3841;SDS011;1936;47.074;15.336;2024-01-30T04:28:55;5.72;;;4.57;;
3841;SDS011;1936;47.074;15.336;2024-01-30T04:30:58;9.07;;;4.53;;
3841;SDS011;1936;47.074;15.336;2024-01-30T04:33:02;8.05;;;4.85;;
3841;SDS011;1936;47.074;15.336;2024-01-30T04:35:07;5.82;;;3.88;;
3841;SDS011;1936;47.074;15.336;2024-01-30T04:37:12;14.32;;;4.30;;
3841;SDS011;1936;47.074;15.336;2024-01-30T04:39:16;4.78;;;3.60;;
3841;SDS011;1936;47.074;15.336;2024-01-30T04:41:18;7.60;;;3.60;;
3841;SDS011;1936;47.074;15.336;2024-01-30T04:43:22;6.63;;;4.00;;
3841;SDS011;1936;47.074;15.336;2024-01-30T04:45:25;9.13;;;4.15;;
3841;SDS011;1936;47.074;15.336;2024-01-30T04:47:29;7.50;;;4.03;;
3841;SDS011;1936;47.074;15.336;2024-01-30T04:49:32;4.55;;;4.00;;
3841;SDS011;1936;47.074;15.336;2024-01-30T04:51:37;5.72;;;3.85;;
3841;SDS011;1936;47.074;15.336;2024-01-30T04:53:40;5.35;;;3.00;;
3841;SDS011;1936;47.074;15.336;2024-01-30T04:55:44;11.65;;;4.40;;
3841;SDS011;1936;47.074;15.336;2024-01-30T04:57:47;10.02;;;4.60;;
3841;SDS011;1936;47.074;15.336;2024-01-30T04:59:51;4.50;;;3.50;;
3841;SDS011;1936;47.074;15.336;2024-01-30T05:01:54;7.28;;;4.22;;
3841;SDS011;1936;47.074;15.336;2024-01-30T05:03:58;6.15;;;4.57;;
3841;SDS011;1936;47.074;15.336;2024-01-30T05:06:01;6.90;;;4.85;;
3841;SDS011;1936;47.074;15.336;2024-01-30T05:08:06;6.13;;;4.25;;
3841;SDS011;1936;47.074;15.336;2024-01-30T05:10:09;9.88;;;4.95;;
3841;SDS011;1936;47.074;15.336;2024-01-30T05:12:13;5.60;;;4.30;;
3841;SDS011;1936;47.074;15.336;2024-01-30T05:14:16;7.47;;;4.15;;
3841;SDS011;1936;47.074;15.336;2024-01-30T05:16:20;10.68;;;4.25;;
3841;SDS011;1936;47.074;15.336;2024-01-30T05:18:23;6.43;;;5.05;;
3841;SDS011;1936;47.074;15.336;2024-01-30T05:20:27;8.75;;;5.88;;
3841;SDS011;1936;47.074;15.336;2024-01-30T05:22:30;9.00;;;4.80;;
3841;SDS011;1936;47.074;15.336;2024-01-30T05:24:35;9.27;;;6.15;;
3841;SDS011;1936;47.074;15.336;2024-01-30T05:26:38;9.90;;;5.68;;
3841;SDS011;1936;47.074;15.336;2024-01-30T05:28:41;9.98;;;6.70;;
3841;SDS011;1936;47.074;15.336;2024-01-30T05:30:45;14.48;;;6.13;;
3841;SDS011;1936;47.074;15.336;2024-01-30T05:32:49;8.50;;;5.15;;
3841;SDS011;1936;47.074;15.336;2024-01-30T05:34:52;10.55;;;4.65;;
3841;SDS011;1936;47.074;15.336;2024-01-30T05:36:56;7.30;;;3.58;;
3841;SDS011;1936;47.074;15.336;2024-01-30T05:39:00;8.32;;;5.15;;
3841;SDS011;1936;47.074;15.336;2024-01-30T05:41:08;7.18;;;4.35;;
3841;SDS011;1936;47.074;15.336;2024-01-30T05:43:12;7.80;;;5.07;;
3841;SDS011;1936;47.074;15.336;2024-01-30T05:45:16;7.25;;;4.18;;
3841;SDS011;1936;47.074;15.336;2024-01-30T05:47:19;7.13;;;5.22;;
3841;SDS011;1936;47.074;15.336;2024-01-30T05:49:22;7.45;;;5.53;;
3841;SDS011;1936;47.074;15.336;2024-01-30T05:51:25;8.98;;;6.50;;
3841;SDS011;1936;47.074;15.336;2024-01-30T05:53:29;11.02;;;5.72;;
3841;SDS011;1936;47.074;15.336;2024-01-30T05:55:33;11.38;;;6.15;;
3841;SDS011;1936;47.074;15.336;2024-01-30T05:57:37;9.95;;;6.22;;
3841;SDS011;1936;47.074;15.336;2024-01-30T05:59:41;10.90;;;5.75;;
3841;SDS011;1936;47.074;15.336;2024-01-30T06:01:45;11.07;;;6.20;;
3841;SDS011;1936;47.074;15.336;2024-01-30T06:03:50;12.95;;;7.43;;
3841;SDS011;1936;47.074;15.336;2024-01-30T06:05:53;18.60;;;10.93;;
3841;SDS011;1936;47.074;15.336;2024-01-30T06:07:56;20.88;;;12.73;;
3841;SDS011;1936;47.074;15.336;2024-01-30T06:10:02;22.33;;;13.00;;
3841;SDS011;1936;47.074;15.336;2024-01-30T06:12:07;32.10;;;16.48;;
3841;SDS011;1936;47.074;15.336;2024-01-30T06:14:14;31.40;;;14.43;;
3841;SDS011;1936;47.074;15.336;2024-01-30T06:16:18;36.47;;;17.40;;
3841;SDS011;1936;47.074;15.336;2024-01-30T06:18:22;31.63;;;19.60;;
3841;SDS011;1936;47.074;15.336;2024-01-30T06:20:29;38.38;;;21.23;;
3841;SDS011;1936;47.074;15.336;2024-01-30T06:22:33;46.15;;;22.27;;
3841;SDS011;1936;47.074;15.336;2024-01-30T06:24:35;69.53;;;28.42;;
3841;SDS011;1936;47.074;15.336;2024-01-30T06:26:39;63.20;;;27.30;;
3841;SDS011;1936;47.074;15.336;2024-01-30T06:28:42;81.07;;;34.53;;
3841;SDS011;1936;47.074;15.336;2024-01-30T06:30:48;67.30;;;26.65;;
3841;SDS011;1936;47.074;15.336;2024-01-30T06:32:51;48.13;;;23.90;;
3841;SDS011;1936;47.074;15.336;2024-01-30T06:34:55;43.22;;;19.35;;
3841;SDS011;1936;47.074;15.336;2024-01-30T06:36:59;38.05;;;17.13;;
3841;SDS011;1936;47.074;15.336;2024-01-30T06:39:02;24.90;;;13.07;;
3841;SDS011;1936;47.074;15.336;2024-01-30T06:41:07;26.95;;;14.27;;
3841;SDS011;1936;47.074;15.336;2024-01-30T06:43:10;25.63;;;13.02;;
3841;SDS011;1936;47.074;15.336;2024-01-30T06:45:14;32.90;;;17.17;;
3841;SDS011;1936;47.074;15.336;2024-01-30T06:47:19;23.92;;;12.50;;
3841;SDS011;1936;47.074;15.336;2024-01-30T06:49:23;26.70;;;15.50;;
3841;SDS011;1936;47.074;15.336;2024-01-30T06:51:26;29.95;;;15.35;;
3841;SDS011;1936;47.074;15.336;2024-01-30T06:53:30;28.98;;;14.80;;
3841;SDS011;1936;47.074;15.336;2024-01-30T06:55:34;32.63;;;15.73;;
3841;SDS011;1936;47.074;15.336;2024-01-30T06:57:36;28.15;;;15.70;;
3841;SDS011;1936;47.074;15.336;2024-01-30T06:59:40;29.92;;;14.05;;
3841;SDS011;1936;47.074;15.336;2024-01-30T07:01:45;27.83;;;11.52;;
3841;SDS011;1936;47.074;15.336;2024-01-30T07:03:50;40.20;;;15.50;;
3841;SDS011;1936;47.074;15.336;2024-01-30T07:05:53;25.42;;;13.60;;
3841;SDS011;1936;47.074;15.336;2024-01-30T07:07:57;24.05;;;14.10;;
3841;SDS011;1936;47.074;15.336;2024-01-30T07:10:01;28.90;;;13.50;;
3841;SDS011;1936;47.074;15.336;2024-01-30T07:12:05;35.58;;;16.08;;
3841;SDS011;1936;47.074;15.336;2024-01-30T07:14:09;35.80;;;15.60;;
3841;SDS011;1936;47.074;15.336;2024-01-30T07:16:12;26.38;;;14.75;;
3841;SDS011;1936;47.074;15.336;2024-01-30T07:18:16;34.83;;;16.70;;
3841;SDS011;1936;47.074;15.336;2024-01-30T07:20:21;30.67;;;13.15;;
3841;SDS011;1936;47.074;15.336;2024-01-30T07:22:25;28.48;;;12.43;;
3841;SDS011;1936;47.074;15.336;2024-01-30T07:24:29;19.40;;;11.50;;
3841;SDS011;1936;47.074;15.336;2024-01-30T07:26:32;20.98;;;10.00;;
3841;SDS011;1936;47.074;15.336;2024-01-30T07:28:37;21.25;;;9.85;;
3841;SDS011;1936;47.074;15.336;2024-01-30T07:30:40;15.77;;;10.85;;
3841;SDS011;1936;47.074;15.336;2024-01-30T07:32:44;22.20;;;10.27;;
3841;SDS011;1936;47.074;15.336;2024-01-30T07:34:47;16.55;;;8.80;;
3841;SDS011;1936;47.074;15.336;2024-01-30T07:37:09;18.70;;;8.05;;
3841;SDS011;1936;47.074;15.336;2024-01-30T07:39:14;22.30;;;8.45;;
3841;SDS011;1936;47.074;15.336;2024-01-30T07:41:18;14.63;;;8.15;;
3841;SDS011;1936;47.074;15.336;2024-01-30T07:43:21;11.10;;;6.90;;
3841;SDS011;1936;47.074;15.336;2024-01-30T07:45:24;14.85;;;8.27;;
3841;SDS011;1936;47.074;15.336;2024-01-30T07:47:29;20.08;;;8.07;;
3841;SDS011;1936;47.074;15.336;2024-01-30T07:49:32;18.25;;;9.20;;
3841;SDS011;1936;47.074;15.336;2024-01-30T07:51:36;13.95;;;8.45;;
3841;SDS011;1936;47.074;15.336;2024-01-30T07:53:44;14.52;;;9.57;;
3841;SDS011;1936;47.074;15.336;2024-01-30T07:56:00;18.35;;;10.07;;
3841;SDS011;1936;47.074;15.336;2024-01-30T07:58:04;16.55;;;8.77;;
3841;SDS011;1936;47.074;15.336;2024-01-30T08:00:07;14.50;;;8.82;;
3841;SDS011;1936;47.074;15.336;2024-01-30T08:02:11;17.15;;;9.00;;
3841;SDS011;1936;47.074;15.336;2024-01-30T08:04:15;16.40;;;9.23;;
3841;SDS011;1936;47.074;15.336;2024-01-30T08:06:19;14.02;;;7.72;;
3841;SDS011;1936;47.074;15.336;2024-01-30T08:08:22;11.48;;;6.75;;
3841;SDS011;1936;47.074;15.336;2024-01-30T08:10:28;14.30;;;7.30;;
3841;SDS011;1936;47.074;15.336;2024-01-30T08:12:31;13.00;;;6.72;;
3841;SDS011;1936;47.074;15.336;2024-01-30T08:14:35;9.95;;;7.30;;
3841;SDS011;1936;47.074;15.336;2024-01-30T08:16:38;16.02;;;6.88;;
3841;SDS011;1936;47.074;15.336;2024-01-30T08:18:41;9.38;;;6.38;;
3841;SDS011;1936;47.074;15.336;2024-01-30T08:20:44;10.57;;;7.65;;
3841;SDS011;1936;47.074;15.336;2024-01-30T08:22:47;12.00;;;7.75;;
3841;SDS011;1936;47.074;15.336;2024-01-30T08:24:51;12.75;;;8.23;;
3841;SDS011;1936;47.074;15.336;2024-01-30T08:26:56;12.88;;;7.82;;
3841;SDS011;1936;47.074;15.336;2024-01-30T08:28:59;11.68;;;8.20;;
3841;SDS011;1936;47.074;15.336;2024-01-30T08:31:02;9.50;;;6.20;;
3841;SDS011;1936;47.074;15.336;2024-01-30T08:33:06;9.73;;;6.10;;
3841;SDS011;1936;47.074;15.336;2024-01-30T08:35:09;9.15;;;5.82;;
3841;SDS011;1936;47.074;15.336;2024-01-30T08:37:15;6.68;;;4.47;;
3841;SDS011;1936;47.074;15.336;2024-01-30T08:39:19;7.57;;;5.07;;
3841;SDS011;1936;47.074;15.336;2024-01-30T08:41:22;7.65;;;6.15;;
3841;SDS011;1936;47.074;15.336;2024-01-30T08:43:27;11.45;;;5.93;;
3841;SDS011;1936;47.074;15.336;2024-01-30T08:45:31;14.43;;;5.85;;
3841;SDS011;1936;47.074;15.336;2024-01-30T08:47:34;8.70;;;4.70;;
3841;SDS011;1936;47.074;15.336;2024-01-30T08:49:36;8.75;;;4.95;;
3841;SDS011;1936;47.074;15.336;2024-01-30T08:51:40;8.18;;;5.55;;
3841;SDS011;1936;47.074;15.336;2024-01-30T08:53:43;7.70;;;5.15;;
3841;SDS011;1936;47.074;15.336;2024-01-30T08:55:47;10.75;;;5.43;;
3841;SDS011;1936;47.074;15.336;2024-01-30T08:57:50;5.72;;;5.13;;
3841;SDS011;1936;47.074;15.336;2024-01-30T08:59:56;13.60;;;5.57;;
3841;SDS011;1936;47.074;15.336;2024-01-30T09:01:58;8.73;;;5.03;;
3841;SDS011;1936;47.074;15.336;2024-01-30T09:04:13;8.33;;;6.40;;
3841;SDS011;1936;47.074;15.336;2024-01-30T09:06:16;9.47;;;6.20;;
3841;SDS011;1936;47.074;15.336;2024-01-30T09:08:20;8.67;;;5.13;;
3841;SDS011;1936;47.074;15.336;2024-01-30T09:10:24;9.43;;;4.67;;
3841;SDS011;1936;47.074;15.336;2024-01-30T09:12:28;15.20;;;6.60;;
3841;SDS011;1936;47.074;15.336;2024-01-30T09:14:32;7.37;;;5.73;;
3841;SDS011;1936;47.074;15.336;2024-01-30T09:16:36;6.53;;;5.40;;
3841;SDS011;1936;47.074;15.336;2024-01-30T09:18:40;9.83;;;5.53;;
3841;SDS011;1936;47.074;15.336;2024-01-30T09:20:43;6.83;;;5.97;;
3841;SDS011;1936;47.074;15.336;2024-01-30T09:22:49;7.43;;;5.10;;
3841;SDS011;1936;47.074;15.336;2024-01-30T09:24:52;5.77;;;5.03;;
3841;SDS011;1936;47.074;15.336;2024-01-30T09:26:56;13.50;;;5.60;;
3841;SDS011;1936;47.074;15.336;2024-01-30T09:28:59;9.07;;;6.33;;
3841;SDS011;1936;47.074;15.336;2024-01-30T09:31:02;7.90;;;5.47;;
3841;SDS011;1936;47.074;15.336;2024-01-30T09:33:07;6.53;;;4.87;;
3841;SDS011;1936;47.074;15.336;2024-01-30T09:35:11;8.13;;;5.60;;
3841;SDS011;1936;47.074;15.336;2024-01-30T09:37:15;8.80;;;5.63;;
3841;SDS011;1936;47.074;15.336;2024-01-30T09:39:20;15.13;;;6.10;;
3841;SDS011;1936;47.074;15.336;2024-01-30T09:41:23;9.00;;;6.20;;
3841;SDS011;1936;47.074;15.336;2024-01-30T09:43:27;12.20;;;6.30;;
3841;SDS011;1936;47.074;15.336;2024-01-30T09:45:36;6.80;;;6.10;;
3841;SDS011;1936;47.074;15.336;2024-01-30T09:47:42;8.00;;;6.50;;
3841;SDS011;1936;47.074;15.336;2024-01-30T09:49:48;8.13;;;6.67;;
3841;SDS011;1936;47.074;15.336;2024-01-30T09:51:52;6.67;;;5.23;;
3841;SDS011;1936;47.074;15.336;2024-01-30T09:53:57;8.90;;;6.70;;
3841;SDS011;1936;47.074;15.336;2024-01-30T09:56:01;9.80;;;6.33;;
3841;SDS011;1936;47.074;15.336;2024-01-30T09:58:05;6.20;;;5.60;;
3841;SDS011;1936;47.074;15.336;2024-01-30T10:00:10;6.60;;;5.60;;
3841;SDS011;1936;47.074;15.336;2024-01-30T10:02:15;10.67;;;7.47;;
3841;SDS011;1936;47.074;15.336;2024-01-30T10:04:18;8.90;;;7.13;;
3841;SDS011;1936;47.074;15.336;2024-01-30T10:06:23;9.80;;;6.67;;
3841;SDS011;1936;47.074;15.336;2024-01-30T10:08:27;8.50;;;6.90;;
3841;SDS011;1936;47.074;15.336;2024-01-30T10:10:31;8.00;;;6.87;;
3841;SDS011;1936;47.074;15.336;2024-01-30T10:12:35;8.37;;;6.83;;
3841;SDS011;1936;47.074;15.336;2024-01-30T10:14:38;9.33;;;6.77;;
3841;SDS011;1936;47.074;15.336;2024-01-30T10:16:42;10.63;;;6.83;;
3841;SDS011;1936;47.074;15.336;2024-01-30T10:18:46;7.30;;;6.47;;
3841;SDS011;1936;47.074;15.336;2024-01-30T10:20:50;10.83;;;6.60;;
3841;SDS011;1936;47.074;15.336;2024-01-30T10:22:56;7.63;;;6.10;;
3841;SDS011;1936;47.074;15.336;2024-01-30T10:25:00;8.03;;;5.90;;
3841;SDS011;1936;47.074;15.336;2024-01-30T10:27:06;11.00;;;5.90;;
3841;SDS011;1936;47.074;15.336;2024-01-30T10:29:10;10.43;;;6.50;;
3841;SDS011;1936;47.074;15.336;2024-01-30T10:31:16;9.73;;;6.63;;
3841;SDS011;1936;47.074;15.336;2024-01-30T10:33:20;10.43;;;7.23;;
3841;SDS011;1936;47.074;15.336;2024-01-30T10:35:24;9.77;;;7.73;;
3841;SDS011;1936;47.074;15.336;2024-01-30T10:37:28;11.53;;;7.50;;
3841;SDS011;1936;47.074;15.336;2024-01-30T10:39:37;6.87;;;6.20;;
3841;SDS011;1936;47.074;15.336;2024-01-30T10:41:42;10.80;;;7.17;;
3841;SDS011;1936;47.074;15.336;2024-01-30T10:43:47;7.60;;;6.90;;
3841;SDS011;1936;47.074;15.336;2024-01-30T10:46:02;11.90;;;7.17;;
3841;SDS011;1936;47.074;15.336;2024-01-30T10:48:11;12.40;;;7.67;;
3841;SDS011;1936;47.074;15.336;2024-01-30T10:50:16;9.47;;;7.80;;
3841;SDS011;1936;47.074;15.336;2024-01-30T10:52:19;9.30;;;7.73;;
3841;SDS011;1936;47.074;15.336;2024-01-30T10:54:27;10.10;;;8.67;;
3841;SDS011;1936;47.074;15.336;2024-01-30T10:56:32;10.70;;;8.57;;
3841;SDS011;1936;47.074;15.336;2024-01-30T10:58:36;12.80;;;9.40;;
3841;SDS011;1936;47.074;15.336;2024-01-30T11:00:39;14.67;;;10.27;;
3841;SDS011;1936;47.074;15.336;2024-01-30T11:02:45;15.53;;;10.90;;
3841;SDS011;1936;47.074;15.336;2024-01-30T11:04:49;11.70;;;8.73;;
3841;SDS011;1936;47.074;15.336;2024-01-30T11:06:56;13.10;;;10.40;;
3841;SDS011;1936;47.074;15.336;2024-01-30T11:09:00;11.00;;;9.80;;
3841;SDS011;1936;47.074;15.336;2024-01-30T11:11:08;10.77;;;9.17;;
3841;SDS011;1936;47.074;15.336;2024-01-30T11:13:18;13.90;;;9.97;;
3841;SDS011;1936;47.074;15.336;2024-01-30T11:15:22;14.50;;;10.40;;
3841;SDS011;1936;47.074;15.336;2024-01-30T11:17:27;17.03;;;10.50;;
3841;SDS011;1936;47.074;15.336;2024-01-30T11:19:30;18.83;;;11.90;;
3841;SDS011;1936;47.074;15.336;2024-01-30T11:21:38;12.17;;;10.17;;
3841;SDS011;1936;47.074;15.336;2024-01-30T11:23:44;10.70;;;8.80;;
3841;SDS011;1936;47.074;15.336;2024-01-30T11:25:48;17.57;;;11.27;;
3841;SDS011;1936;47.074;15.336;2024-01-30T11:27:52;10.30;;;9.20;;
3841;SDS011;1936;47.074;15.336;2024-01-30T11:30:02;21.60;;;10.50;;
3841;SDS011;1936;47.074;15.336;2024-01-30T11:32:05;17.10;;;10.60;;
3841;SDS011;1936;47.074;15.336;2024-01-30T11:34:09;11.37;;;9.83;;
3841;SDS011;1936;47.074;15.336;2024-01-30T11:36:13;13.33;;;10.10;;
3841;SDS011;1936;47.074;15.336;2024-01-30T11:38:19;12.63;;;10.30;;
3841;SDS011;1936;47.074;15.336;2024-01-30T11:40:23;11.73;;;10.53;;
3841;SDS011;1936;47.074;15.336;2024-01-30T11:42:29;11.97;;;9.80;;
3841;SDS011;1936;47.074;15.336;2024-01-30T11:44:32;16.13;;;9.40;;
3841;SDS011;1936;47.074;15.336;2024-01-30T11:46:36;12.60;;;10.40;;
3841;SDS011;1936;47.074;15.336;2024-01-30T11:48:40;14.67;;;9.03;;
3841;SDS011;1936;47.074;15.336;2024-01-30T11:50:44;11.70;;;10.17;;
3841;SDS011;1936;47.074;15.336;2024-01-30T11:52:47;17.03;;;10.17;;
3841;SDS011;1936;47.074;15.336;2024-01-30T11:54:52;16.77;;;9.43;;
3841;SDS011;1936;47.074;15.336;2024-01-30T11:56:56;20.00;;;11.17;;
3841;SDS011;1936;47.074;15.336;2024-01-30T11:59:00;12.07;;;9.27;;
3841;SDS011;1936;47.074;15.336;2024-01-30T12:01:04;18.03;;;11.00;;
3841;SDS011;1936;47.074;15.336;2024-01-30T12:03:09;14.90;;;10.70;;
3841;SDS011;1936;47.074;15.336;2024-01-30T12:05:14;15.77;;;10.30;;
3841;SDS011;1936;47.074;15.336;2024-01-30T12:07:18;16.70;;;11.57;;
3841;SDS011;1936;47.074;15.336;2024-01-30T12:09:22;19.17;;;12.63;;
3841;SDS011;1936;47.074;15.336;2024-01-30T12:11:25;12.27;;;10.37;;
3841;SDS011;1936;47.074;15.336;2024-01-30T12:13:31;16.30;;;10.40;;
3841;SDS011;1936;47.074;15.336;2024-01-30T12:15:35;14.10;;;11.50;;
3841;SDS011;1936;47.074;15.336;2024-01-30T12:17:38;15.30;;;12.10;;
3841;SDS011;1936;47.074;15.336;2024-01-30T12:19:43;26.33;;;13.90;;
3841;SDS011;1936;47.074;15.336;2024-01-30T12:21:45;18.97;;;12.27;;
3841;SDS011;1936;47.074;15.336;2024-01-30T12:23:48;21.13;;;12.10;;
3841;SDS011;1936;47.074;15.336;2024-01-30T12:25:52;13.00;;;11.10;;
3841;SDS011;1936;47.074;15.336;2024-01-30T12:27:55;17.03;;;11.20;;
3841;SDS011;1936;47.074;15.336;2024-01-30T12:30:00;13.50;;;11.50;;
3841;SDS011;1936;47.074;15.336;2024-01-30T12:32:04;18.43;;;11.30;;